sensor_id;sensor_type;location;lat;lon;timestamp;pressure;altitude;pressure_sealevel;temperature;humidity
72975;BME280;61166;54.228;37.632;2022-08-25T00:00:46;100365.75;;;15.75;nan
72975;BME280;61166;54.228;37.632;2022-08-25T00:03:12;100355.75;;;15.77;nan
72975;BME280;61166;54.228;37.632;2022-08-25T00:05:38;100357.16;;;15.79;nan
72975;BME280;61166;54.228;37.632;2022-08-25T00:08:04;100354.22;;;15.88;nan
72975;BME280;61166;54.228;37.632;2022-08-25T00:10:33;100361.59;;;15.85;nan
72975;BME280;61166;54.228;37.632;2022-08-25T00:12:59;100349.16;;;15.86;nan
72975;BME280;61166;54.228;37.632;2022-08-25T00:15:25;100348.56;;;15.84;nan
72975;BME280;61166;54.228;37.632;2022-08-25T00:17:51;100358.72;;;15.87;nan
72975;BME280;61166;54.228;37.632;2022-08-25T00:20:17;100353.47;;;15.80;nan
72975;BME280;61166;54.228;37.632;2022-08-25T00:22:42;100354.50;;;15.79;nan
72975;BME280;61166;54.228;37.632;2022-08-25T00:25:08;100350.06;;;15.73;nan
72975;BME280;61166;54.228;37.632;2022-08-25T00:27:34;100354.81;;;15.65;nan
72975;BME280;61166;54.228;37.632;2022-08-25T00:29:59;100352.38;;;15.63;nan
72975;BME280;61166;54.228;37.632;2022-08-25T00:32:25;100356.75;;;15.51;nan
72975;BME280;61166;54.228;37.632;2022-08-25T00:34:51;100350.47;;;15.45;nan
72975;BME280;61166;54.228;37.632;2022-08-25T00:37:18;100348.50;;;15.34;nan
72975;BME280;61166;54.228;37.632;2022-08-25T00:39:43;100353.06;;;15.20;nan
72975;BME280;61166;54.228;37.632;2022-08-25T00:42:09;100343.91;;;15.16;nan
72975;BME280;61166;54.228;37.632;2022-08-25T00:44:35;100351.84;;;15.16;nan
72975;BME280;61166;54.228;37.632;2022-08-25T00:47:02;100344.94;;;15.15;nan
72975;BME280;61166;54.228;37.632;2022-08-25T00:49:38;100342.88;;;15.17;nan
72975;BME280;61166;54.228;37.632;2022-08-25T00:52:19;100357.53;;;15.20;nan
72975;BME280;61166;54.228;37.632;2022-08-25T00:54:50;100347.78;;;15.14;nan
72975;BME280;61166;54.228;37.632;2022-08-25T00:57:20;100347.78;;;15.14;nan
72975;BME280;61166;54.228;37.632;2022-08-25T00:59:47;100356.09;;;15.24;nan
72975;BME280;61166;54.228;37.632;2022-08-25T01:02:14;100352.81;;;15.29;nan
72975;BME280;61166;54.228;37.632;2022-08-25T01:04:40;100352.16;;;15.33;nan
72975;BME280;61166;54.228;37.632;2022-08-25T01:07:05;100354.81;;;15.33;nan
72975;BME280;61166;54.228;37.632;2022-08-25T01:09:32;100355.72;;;15.20;nan
72975;BME280;61166;54.228;37.632;2022-08-25T01:11:58;100356.34;;;15.16;nan
72975;BME280;61166;54.228;37.632;2022-08-25T01:14:26;100362.97;;;15.00;nan
72975;BME280;61166;54.228;37.632;2022-08-25T01:16:52;100356.94;;;15.18;nan
72975;BME280;61166;54.228;37.632;2022-08-25T01:19:18;100361.91;;;15.39;nan
72975;BME280;61166;54.228;37.632;2022-08-25T01:21:47;100351.22;;;15.59;nan
72975;BME280;61166;54.228;37.632;2022-08-25T01:24:25;100355.41;;;15.67;nan
72975;BME280;61166;54.228;37.632;2022-08-25T01:26:56;100354.38;;;15.68;nan
72975;BME280;61166;54.228;37.632;2022-08-25T01:29:22;100345.72;;;15.79;nan
72975;BME280;61166;54.228;37.632;2022-08-25T01:32:00;100345.41;;;15.69;nan
72975;BME280;61166;54.228;37.632;2022-08-25T01:34:29;100349.25;;;15.73;nan
72975;BME280;61166;54.228;37.632;2022-08-25T01:36:57;100346.16;;;15.76;nan
72975;BME280;61166;54.228;37.632;2022-08-25T01:39:24;100339.66;;;15.72;nan
72975;BME280;61166;54.228;37.632;2022-08-25T01:44:31;100347.06;;;15.63;nan
72975;BME280;61166;54.228;37.632;2022-08-25T01:46:57;100353.28;;;15.50;nan
72975;BME280;61166;54.228;37.632;2022-08-25T01:49:22;100349.06;;;15.43;nan
72975;BME280;61166;54.228;37.632;2022-08-25T01:51:56;100353.53;;;15.42;nan
72975;BME280;61166;54.228;37.632;2022-08-25T01:54:22;100347.84;;;15.39;nan
72975;BME280;61166;54.228;37.632;2022-08-25T01:56:47;100346.44;;;15.36;nan
72975;BME280;61166;54.228;37.632;2022-08-25T01:59:15;100347.69;;;15.34;nan
72975;BME280;61166;54.228;37.632;2022-08-25T02:01:42;100347.72;;;15.27;nan
72975;BME280;61166;54.228;37.632;2022-08-25T02:04:07;100351.88;;;15.10;nan
72975;BME280;61166;54.228;37.632;2022-08-25T02:06:33;100354.81;;;15.02;nan
72975;BME280;61166;54.228;37.632;2022-08-25T02:09:06;100355.38;;;15.04;nan
72975;BME280;61166;54.228;37.632;2022-08-25T02:11:32;100358.44;;;15.07;nan
72975;BME280;61166;54.228;37.632;2022-08-25T02:13:57;100352.53;;;15.05;nan
72975;BME280;61166;54.228;37.632;2022-08-25T02:16:26;100359.25;;;15.08;nan
72975;BME280;61166;54.228;37.632;2022-08-25T02:18:53;100352.25;;;15.20;nan
72975;BME280;61166;54.228;37.632;2022-08-25T02:21:19;100348.16;;;15.24;nan
72975;BME280;61166;54.228;37.632;2022-08-25T02:23:45;100354.22;;;15.31;nan
72975;BME280;61166;54.228;37.632;2022-08-25T02:26:11;100353.38;;;15.37;nan
72975;BME280;61166;54.228;37.632;2022-08-25T02:28:41;100351.31;;;15.39;nan
72975;BME280;61166;54.228;37.632;2022-08-25T02:31:06;100352.94;;;15.40;nan
72975;BME280;61166;54.228;37.632;2022-08-25T02:33:32;100356.16;;;15.49;nan
72975;BME280;61166;54.228;37.632;2022-08-25T02:35:58;100349.38;;;15.60;nan
72975;BME280;61166;54.228;37.632;2022-08-25T02:38:24;100343.63;;;15.63;nan
72975;BME280;61166;54.228;37.632;2022-08-25T02:40:52;100348.06;;;15.69;nan
72975;BME280;61166;54.228;37.632;2022-08-25T02:43:18;100347.78;;;15.77;nan
72975;BME280;61166;54.228;37.632;2022-08-25T02:45:43;100347.75;;;15.83;nan
72975;BME280;61166;54.228;37.632;2022-08-25T02:48:08;100345.34;;;16.00;nan
72975;BME280;61166;54.228;37.632;2022-08-25T02:50:34;100345.00;;;16.15;nan
72975;BME280;61166;54.228;37.632;2022-08-25T02:52:59;100350.81;;;16.24;nan
72975;BME280;61166;54.228;37.632;2022-08-25T02:55:25;100344.66;;;16.48;nan
72975;BME280;61166;54.228;37.632;2022-08-25T02:57:50;100351.28;;;16.75;nan
72975;BME280;61166;54.228;37.632;2022-08-25T03:00:16;100341.94;;;17.03;nan
72975;BME280;61166;54.228;37.632;2022-08-25T03:02:42;100354.53;;;17.37;nan
72975;BME280;61166;54.228;37.632;2022-08-25T03:05:09;100351.44;;;17.52;nan
72975;BME280;61166;54.228;37.632;2022-08-25T03:07:36;100345.28;;;17.70;nan
72975;BME280;61166;54.228;37.632;2022-08-25T03:10:11;100348.88;;;17.87;nan
72975;BME280;61166;54.228;37.632;2022-08-25T03:12:38;100353.41;;;17.87;nan
72975;BME280;61166;54.228;37.632;2022-08-25T03:15:06;100351.88;;;17.67;nan
72975;BME280;61166;54.228;37.632;2022-08-25T03:17:32;100353.50;;;18.38;nan
72975;BME280;61166;54.228;37.632;2022-08-25T03:19:57;100345.00;;;19.05;nan
72975;BME280;61166;54.228;37.632;2022-08-25T03:22:23;100350.75;;;19.59;nan
72975;BME280;61166;54.228;37.632;2022-08-25T03:24:48;100348.94;;;20.36;nan
72975;BME280;61166;54.228;37.632;2022-08-25T03:27:13;100338.44;;;20.95;nan
72975;BME280;61166;54.228;37.632;2022-08-25T03:29:39;100344.44;;;21.29;nan
72975;BME280;61166;54.228;37.632;2022-08-25T03:32:07;100345.16;;;21.84;nan
72975;BME280;61166;54.228;37.632;2022-08-25T03:34:32;100342.72;;;22.19;nan
72975;BME280;61166;54.228;37.632;2022-08-25T03:36:58;100334.31;;;22.58;nan
72975;BME280;61166;54.228;37.632;2022-08-25T03:39:24;100329.91;;;22.99;nan
72975;BME280;61166;54.228;37.632;2022-08-25T03:41:51;100324.56;;;23.29;nan
72975;BME280;61166;54.228;37.632;2022-08-25T03:44:18;100327.84;;;23.62;nan
72975;BME280;61166;54.228;37.632;2022-08-25T03:46:47;100322.13;;;23.99;nan
72975;BME280;61166;54.228;37.632;2022-08-25T03:49:17;100337.16;;;24.20;nan
72975;BME280;61166;54.228;37.632;2022-08-25T03:51:45;100322.72;;;24.71;nan
72975;BME280;61166;54.228;37.632;2022-08-25T03:54:12;100320.59;;;24.62;nan
72975;BME280;61166;54.228;37.632;2022-08-25T03:56:38;100323.09;;;24.98;nan
72975;BME280;61166;54.228;37.632;2022-08-25T03:59:04;100328.63;;;25.22;nan
72975;BME280;61166;54.228;37.632;2022-08-25T04:01:30;100317.44;;;25.39;nan
72975;BME280;61166;54.228;37.632;2022-08-25T04:03:55;100324.91;;;26.05;nan
72975;BME280;61166;54.228;37.632;2022-08-25T04:06:21;100313.19;;;26.43;nan
72975;BME280;61166;54.228;37.632;2022-08-25T04:08:47;100316.41;;;26.64;nan
72975;BME280;61166;54.228;37.632;2022-08-25T04:11:18;100312.88;;;27.06;nan
72975;BME280;61166;54.228;37.632;2022-08-25T04:13:45;100311.59;;;27.36;nan
72975;BME280;61166;54.228;37.632;2022-08-25T04:16:37;100309.53;;;27.93;nan
72975;BME280;61166;54.228;37.632;2022-08-25T04:19:04;100309.19;;;27.35;nan
72975;BME280;61166;54.228;37.632;2022-08-25T04:21:30;100308.97;;;26.08;nan
72975;BME280;61166;54.228;37.632;2022-08-25T04:23:56;100304.53;;;24.42;nan
72975;BME280;61166;54.228;37.632;2022-08-25T04:26:30;100306.59;;;23.10;nan
72975;BME280;61166;54.228;37.632;2022-08-25T04:28:57;100303.97;;;22.42;nan
72975;BME280;61166;54.228;37.632;2022-08-25T04:31:24;100303.97;;;22.00;nan
72975;BME280;61166;54.228;37.632;2022-08-25T04:33:50;100312.66;;;21.70;nan
72975;BME280;61166;54.228;37.632;2022-08-25T04:36:17;100314.31;;;21.76;nan
72975;BME280;61166;54.228;37.632;2022-08-25T04:38:43;100310.06;;;23.15;nan
72975;BME280;61166;54.228;37.632;2022-08-25T04:41:11;100299.34;;;25.10;nan
72975;BME280;61166;54.228;37.632;2022-08-25T04:43:38;100298.69;;;26.58;nan
72975;BME280;61166;54.228;37.632;2022-08-25T04:46:11;100296.00;;;27.79;nan
72975;BME280;61166;54.228;37.632;2022-08-25T04:48:37;100291.94;;;29.09;nan
72975;BME280;61166;54.228;37.632;2022-08-25T04:51:05;100290.16;;;30.19;nan
72975;BME280;61166;54.228;37.632;2022-08-25T04:53:32;100292.53;;;30.86;nan
72975;BME280;61166;54.228;37.632;2022-08-25T04:55:57;100284.31;;;31.94;nan
72975;BME280;61166;54.228;37.632;2022-08-25T04:58:22;100293.28;;;32.53;nan
72975;BME280;61166;54.228;37.632;2022-08-25T05:00:48;100285.59;;;32.97;nan
72975;BME280;61166;54.228;37.632;2022-08-25T05:03:13;100287.06;;;33.72;nan
72975;BME280;61166;54.228;37.632;2022-08-25T05:05:38;100289.25;;;34.40;nan
72975;BME280;61166;54.228;37.632;2022-08-25T05:08:05;100285.38;;;34.93;nan
72975;BME280;61166;54.228;37.632;2022-08-25T05:10:31;100285.09;;;35.26;nan
72975;BME280;61166;54.228;37.632;2022-08-25T05:12:57;100271.56;;;35.61;nan
72975;BME280;61166;54.228;37.632;2022-08-25T05:15:24;100275.00;;;36.41;nan
72975;BME280;61166;54.228;37.632;2022-08-25T05:18:08;100275.75;;;37.15;nan
72975;BME280;61166;54.228;37.632;2022-08-25T05:20:36;100275.16;;;37.44;nan
72975;BME280;61166;54.228;37.632;2022-08-25T05:42:25;100268.94;;;40.08;nan
72975;BME280;61166;54.228;37.632;2022-08-25T05:44:51;100259.31;;;40.39;nan
72975;BME280;61166;54.228;37.632;2022-08-25T05:47:16;100264.25;;;41.13;nan
72975;BME280;61166;54.228;37.632;2022-08-25T05:49:42;100260.69;;;40.92;nan
72975;BME280;61166;54.228;37.632;2022-08-25T05:52:07;100254.84;;;41.25;nan
72975;BME280;61166;54.228;37.632;2022-08-25T05:54:32;100254.84;;;42.03;nan
72975;BME280;61166;54.228;37.632;2022-08-25T05:56:58;100250.91;;;41.83;nan
72975;BME280;61166;54.228;37.632;2022-08-25T05:59:25;100256.44;;;42.04;nan
72975;BME280;61166;54.228;37.632;2022-08-25T06:01:50;100248.94;;;41.44;nan
72975;BME280;61166;54.228;37.632;2022-08-25T06:04:34;100246.56;;;41.68;nan
72975;BME280;61166;54.228;37.632;2022-08-25T06:06:59;100242.50;;;42.29;nan
72975;BME280;61166;54.228;37.632;2022-08-25T06:09:25;100241.59;;;42.64;nan
72975;BME280;61166;54.228;37.632;2022-08-25T06:11:50;100241.25;;;43.21;nan
72975;BME280;61166;54.228;37.632;2022-08-25T06:14:16;100238.09;;;43.26;nan
72975;BME280;61166;54.228;37.632;2022-08-25T06:16:42;100239.53;;;43.38;nan
72975;BME280;61166;54.228;37.632;2022-08-25T06:21:34;100241.91;;;44.22;nan
72975;BME280;61166;54.228;37.632;2022-08-25T06:23:59;100235.72;;;44.10;nan
72975;BME280;61166;54.228;37.632;2022-08-25T06:28:51;100245.66;;;43.15;nan
72975;BME280;61166;54.228;37.632;2022-08-25T06:31:17;100237.16;;;42.84;nan
72975;BME280;61166;54.228;37.632;2022-08-25T06:33:43;100243.72;;;42.25;nan
72975;BME280;61166;54.228;37.632;2022-08-25T06:36:08;100243.81;;;41.46;nan
72975;BME280;61166;54.228;37.632;2022-08-25T06:38:34;100244.03;;;39.90;nan
72975;BME280;61166;54.228;37.632;2022-08-25T06:41:04;100235.69;;;40.42;nan
72975;BME280;61166;54.228;37.632;2022-08-25T06:43:31;100243.03;;;41.49;nan
72975;BME280;61166;54.228;37.632;2022-08-25T06:46:17;100239.88;;;41.54;nan
72975;BME280;61166;54.228;37.632;2022-08-25T06:48:43;100242.13;;;42.27;nan
72975;BME280;61166;54.228;37.632;2022-08-25T06:51:12;100240.41;;;42.69;nan
72975;BME280;61166;54.228;37.632;2022-08-25T06:58:29;100239.72;;;44.40;nan
72975;BME280;61166;54.228;37.632;2022-08-25T07:00:55;100238.59;;;43.96;nan
72975;BME280;61166;54.228;37.632;2022-08-25T07:03:21;100243.75;;;43.57;nan
72975;BME280;61166;54.228;37.632;2022-08-25T07:10:41;100237.34;;;42.45;nan
72975;BME280;61166;54.228;37.632;2022-08-25T07:13:06;100237.50;;;41.57;nan
72975;BME280;61166;54.228;37.632;2022-08-25T07:15:37;100240.81;;;40.40;nan
72975;BME280;61166;54.228;37.632;2022-08-25T07:18:03;100234.94;;;40.55;nan
72975;BME280;61166;54.228;37.632;2022-08-25T07:20:29;100241.63;;;39.89;nan
72975;BME280;61166;54.228;37.632;2022-08-25T07:22:55;100234.19;;;40.69;nan
72975;BME280;61166;54.228;37.632;2022-08-25T07:25:22;100233.56;;;41.22;nan
72975;BME280;61166;54.228;37.632;2022-08-25T07:27:47;100231.97;;;41.35;nan
72975;BME280;61166;54.228;37.632;2022-08-25T07:30:13;100236.13;;;39.85;nan
72975;BME280;61166;54.228;37.632;2022-08-25T07:32:38;100242.53;;;39.49;nan
72975;BME280;61166;54.228;37.632;2022-08-25T07:35:04;100235.63;;;39.69;nan
72975;BME280;61166;54.228;37.632;2022-08-25T07:37:43;100228.88;;;40.21;nan
72975;BME280;61166;54.228;37.632;2022-08-25T07:40:15;100230.75;;;41.08;nan
72975;BME280;61166;54.228;37.632;2022-08-25T07:42:41;100221.69;;;41.82;nan
72975;BME280;61166;54.228;37.632;2022-08-25T07:45:08;100222.13;;;41.52;nan
72975;BME280;61166;54.228;37.632;2022-08-25T07:47:35;100218.53;;;40.91;nan
72975;BME280;61166;54.228;37.632;2022-08-25T07:50:00;100215.81;;;41.59;nan
72975;BME280;61166;54.228;37.632;2022-08-25T07:52:26;100211.44;;;41.11;nan
72975;BME280;61166;54.228;37.632;2022-08-25T07:54:52;100199.25;;;41.37;nan
72975;BME280;61166;54.228;37.632;2022-08-25T07:57:19;100197.66;;;41.50;nan
72975;BME280;61166;54.228;37.632;2022-08-25T07:59:46;100202.78;;;41.41;nan
72975;BME280;61166;54.228;37.632;2022-08-25T08:02:12;100196.88;;;41.32;nan
72975;BME280;61166;54.228;37.632;2022-08-25T08:04:38;100183.81;;;40.86;nan
72975;BME280;61166;54.228;37.632;2022-08-25T08:07:04;100183.88;;;41.43;nan
72975;BME280;61166;54.228;37.632;2022-08-25T08:09:30;100178.88;;;42.40;nan
72975;BME280;61166;54.228;37.632;2022-08-25T08:11:56;100183.00;;;41.89;nan
72975;BME280;61166;54.228;37.632;2022-08-25T08:14:22;100175.16;;;40.84;nan
72975;BME280;61166;54.228;37.632;2022-08-25T08:16:47;100186.09;;;40.56;nan
72975;BME280;61166;54.228;37.632;2022-08-25T08:19:13;100176.69;;;40.75;nan
72975;BME280;61166;54.228;37.632;2022-08-25T08:21:39;100173.91;;;39.26;nan
72975;BME280;61166;54.228;37.632;2022-08-25T08:24:04;100173.41;;;38.76;nan
72975;BME280;61166;54.228;37.632;2022-08-25T08:26:30;100166.84;;;39.80;nan
72975;BME280;61166;54.228;37.632;2022-08-25T08:28:56;100167.16;;;40.51;nan
72975;BME280;61166;54.228;37.632;2022-08-25T08:31:23;100160.09;;;40.53;nan
72975;BME280;61166;54.228;37.632;2022-08-25T08:33:52;100172.78;;;41.15;nan
72975;BME280;61166;54.228;37.632;2022-08-25T08:36:18;100166.47;;;40.82;nan
72975;BME280;61166;54.228;37.632;2022-08-25T08:38:44;100158.13;;;39.71;nan
72975;BME280;61166;54.228;37.632;2022-08-25T08:44:19;100168.75;;;39.21;nan
72975;BME280;61166;54.228;37.632;2022-08-25T08:52:18;100159.75;;;38.16;nan
72975;BME280;61166;54.228;37.632;2022-08-25T08:54:49;100151.94;;;37.16;nan
72975;BME280;61166;54.228;37.632;2022-08-25T08:57:18;100150.31;;;37.61;nan
72975;BME280;61166;54.228;37.632;2022-08-25T08:59:49;100145.41;;;38.30;nan
72975;BME280;61166;54.228;37.632;2022-08-25T09:02:24;100143.34;;;38.23;nan
72975;BME280;61166;54.228;37.632;2022-08-25T09:04:55;100134.19;;;36.84;nan
72975;BME280;61166;54.228;37.632;2022-08-25T09:07:30;100152.56;;;36.83;nan
72975;BME280;61166;54.228;37.632;2022-08-25T09:09:57;100142.75;;;36.82;nan
72975;BME280;61166;54.228;37.632;2022-08-25T09:12:33;100141.09;;;37.00;nan
72975;BME280;61166;54.228;37.632;2022-08-25T09:18:40;100132.41;;;37.67;nan
72975;BME280;61166;54.228;37.632;2022-08-25T09:21:17;100141.16;;;36.39;nan
72975;BME280;61166;54.228;37.632;2022-08-25T09:24:11;100124.16;;;35.28;nan
72975;BME280;61166;54.228;37.632;2022-08-25T09:26:48;100121.13;;;36.58;nan
72975;BME280;61166;54.228;37.632;2022-08-25T09:29:23;100119.56;;;37.48;nan
72975;BME280;61166;54.228;37.632;2022-08-25T09:31:49;100132.75;;;37.65;nan
72975;BME280;61166;54.228;37.632;2022-08-25T09:34:20;100129.66;;;37.41;nan
72975;BME280;61166;54.228;37.632;2022-08-25T09:36:47;100126.81;;;37.63;nan
72975;BME280;61166;54.228;37.632;2022-08-25T09:39:15;100107.63;;;37.63;nan
72975;BME280;61166;54.228;37.632;2022-08-25T09:41:50;100107.75;;;38.00;nan
72975;BME280;61166;54.228;37.632;2022-08-25T09:49:36;100098.41;;;37.22;nan
72975;BME280;61166;54.228;37.632;2022-08-25T09:54:52;100087.03;;;37.77;nan
72975;BME280;61166;54.228;37.632;2022-08-25T09:57:42;100090.38;;;37.93;nan
72975;BME280;61166;54.228;37.632;2022-08-25T10:02:40;100093.56;;;36.28;nan
72975;BME280;61166;54.228;37.632;2022-08-25T10:05:25;100081.91;;;35.41;nan
72975;BME280;61166;54.228;37.632;2022-08-25T10:07:57;100089.34;;;34.34;nan
72975;BME280;61166;54.228;37.632;2022-08-25T10:10:29;100078.19;;;33.35;nan
72975;BME280;61166;54.228;37.632;2022-08-25T10:16:25;100080.41;;;32.51;nan
72975;BME280;61166;54.228;37.632;2022-08-25T10:19:06;100079.22;;;32.40;nan
72975;BME280;61166;54.228;37.632;2022-08-25T10:21:33;100097.72;;;32.13;nan
72975;BME280;61166;54.228;37.632;2022-08-25T10:23:58;100066.78;;;32.18;nan
72975;BME280;61166;54.228;37.632;2022-08-25T10:34:41;100061.56;;;31.71;nan
72975;BME280;61166;54.228;37.632;2022-08-25T10:45:37;100049.72;;;31.67;nan
72975;BME280;61166;54.228;37.632;2022-08-25T10:51:14;100042.63;;;31.54;nan
72975;BME280;61166;54.228;37.632;2022-08-25T10:56:33;100042.00;;;31.48;nan
72975;BME280;61166;54.228;37.632;2022-08-25T10:59:21;100042.44;;;31.30;nan
72975;BME280;61166;54.228;37.632;2022-08-25T11:02:03;100031.81;;;31.16;nan
72975;BME280;61166;54.228;37.632;2022-08-25T11:04:56;100040.97;;;31.32;nan
72975;BME280;61166;54.228;37.632;2022-08-25T11:07:27;100038.97;;;31.20;nan
72975;BME280;61166;54.228;37.632;2022-08-25T11:09:59;100035.03;;;31.09;nan
72975;BME280;61166;54.228;37.632;2022-08-25T11:12:34;100030.06;;;31.11;nan
72975;BME280;61166;54.228;37.632;2022-08-25T11:15:14;100027.91;;;31.26;nan
72975;BME280;61166;54.228;37.632;2022-08-25T11:17:50;100031.09;;;31.28;nan
72975;BME280;61166;54.228;37.632;2022-08-25T11:20:25;100024.53;;;31.29;nan
72975;BME280;61166;54.228;37.632;2022-08-25T11:25:43;100025.28;;;31.08;nan
72975;BME280;61166;54.228;37.632;2022-08-25T11:30:59;100003.19;;;31.18;nan
72975;BME280;61166;54.228;37.632;2022-08-25T11:33:27;100003.53;;;31.38;nan
72975;BME280;61166;54.228;37.632;2022-08-25T11:35:59;100008.69;;;31.31;nan
72975;BME280;61166;54.228;37.632;2022-08-25T11:38:51;100001.84;;;31.25;nan
72975;BME280;61166;54.228;37.632;2022-08-25T11:41:24;100014.25;;;31.13;nan
72975;BME280;61166;54.228;37.632;2022-08-25T11:47:04;100004.63;;;30.78;nan
72975;BME280;61166;54.228;37.632;2022-08-25T11:52:45;99988.75;;;30.59;nan
72975;BME280;61166;54.228;37.632;2022-08-25T11:55:17;99995.94;;;30.55;nan
72975;BME280;61166;54.228;37.632;2022-08-25T11:57:44;99991.59;;;30.63;nan
72975;BME280;61166;54.228;37.632;2022-08-25T12:02:46;99993.97;;;30.64;nan
72975;BME280;61166;54.228;37.632;2022-08-25T12:10:24;99973.56;;;30.96;nan
72975;BME280;61166;54.228;37.632;2022-08-25T12:13:04;99976.69;;;30.77;nan
72975;BME280;61166;54.228;37.632;2022-08-25T12:23:37;99966.72;;;30.61;nan
72975;BME280;61166;54.228;37.632;2022-08-25T12:26:28;99969.44;;;30.61;nan
72975;BME280;61166;54.228;37.632;2022-08-25T12:29:05;99964.19;;;30.47;nan
72975;BME280;61166;54.228;37.632;2022-08-25T12:37:03;99966.72;;;30.52;nan
72975;BME280;61166;54.228;37.632;2022-08-25T12:39:35;99958.91;;;30.42;nan
72975;BME280;61166;54.228;37.632;2022-08-25T12:42:05;99957.78;;;30.51;nan
72975;BME280;61166;54.228;37.632;2022-08-25T12:44:44;99957.59;;;30.57;nan
72975;BME280;61166;54.228;37.632;2022-08-25T12:49:52;99953.00;;;30.48;nan
72975;BME280;61166;54.228;37.632;2022-08-25T12:52:20;99950.44;;;30.43;nan
72975;BME280;61166;54.228;37.632;2022-08-25T12:54:52;99950.91;;;30.54;nan
72975;BME280;61166;54.228;37.632;2022-08-25T12:57:44;99951.09;;;30.40;nan
72975;BME280;61166;54.228;37.632;2022-08-25T13:00:20;99946.25;;;30.54;nan
72975;BME280;61166;54.228;37.632;2022-08-25T13:06:14;99946.91;;;30.60;nan
72975;BME280;61166;54.228;37.632;2022-08-25T13:12:08;99950.41;;;30.61;nan
72975;BME280;61166;54.228;37.632;2022-08-25T13:14:40;99951.34;;;30.65;nan
72975;BME280;61166;54.228;37.632;2022-08-25T13:17:07;99947.03;;;30.64;nan
72975;BME280;61166;54.228;37.632;2022-08-25T13:19:34;99944.88;;;30.78;nan
72975;BME280;61166;54.228;37.632;2022-08-25T13:22:02;99942.13;;;30.86;nan
72975;BME280;61166;54.228;37.632;2022-08-25T13:24:39;99943.75;;;30.79;nan
72975;BME280;61166;54.228;37.632;2022-08-25T13:27:07;99944.75;;;30.74;nan
72975;BME280;61166;54.228;37.632;2022-08-25T13:29:36;99940.59;;;30.77;nan
72975;BME280;61166;54.228;37.632;2022-08-25T13:32:16;99945.09;;;30.64;nan
72975;BME280;61166;54.228;37.632;2022-08-25T13:34:48;99942.75;;;30.54;nan
72975;BME280;61166;54.228;37.632;2022-08-25T13:37:18;99950.75;;;30.59;nan
72975;BME280;61166;54.228;37.632;2022-08-25T13:42:50;99950.91;;;30.54;nan
72975;BME280;61166;54.228;37.632;2022-08-25T13:45:25;99943.72;;;30.49;nan
72975;BME280;61166;54.228;37.632;2022-08-25T13:47:52;99940.22;;;30.49;nan
72975;BME280;61166;54.228;37.632;2022-08-25T13:53:00;99938.66;;;30.39;nan
72975;BME280;61166;54.228;37.632;2022-08-25T13:55:33;99938.34;;;30.32;nan
72975;BME280;61166;54.228;37.632;2022-08-25T13:58:00;99933.19;;;30.01;nan
72975;BME280;61166;54.228;37.632;2022-08-25T14:00:42;99932.22;;;29.88;nan
72975;BME280;61166;54.228;37.632;2022-08-25T14:03:37;99938.28;;;29.68;nan
72975;BME280;61166;54.228;37.632;2022-08-25T14:06:25;99936.06;;;29.62;nan
72975;BME280;61166;54.228;37.632;2022-08-25T14:11:32;99940.38;;;29.71;nan
72975;BME280;61166;54.228;37.632;2022-08-25T14:14:00;99936.38;;;29.69;nan
72975;BME280;61166;54.228;37.632;2022-08-25T14:16:27;99934.16;;;29.62;nan
72975;BME280;61166;54.228;37.632;2022-08-25T14:18:56;99931.59;;;29.48;nan
72975;BME280;61166;54.228;37.632;2022-08-25T14:21:27;99932.34;;;29.23;nan
72975;BME280;61166;54.228;37.632;2022-08-25T14:23:54;99937.31;;;28.73;nan
72975;BME280;61166;54.228;37.632;2022-08-25T14:26:21;99943.19;;;28.66;nan
72975;BME280;61166;54.228;37.632;2022-08-25T14:28:46;99940.47;;;28.26;nan
72975;BME280;61166;54.228;37.632;2022-08-25T14:31:26;99936.56;;;28.19;nan
72975;BME280;61166;54.228;37.632;2022-08-25T14:34:04;99933.47;;;28.03;nan
72975;BME280;61166;54.228;37.632;2022-08-25T14:36:32;99933.88;;;27.97;nan
72975;BME280;61166;54.228;37.632;2022-08-25T14:39:00;99931.81;;;27.93;nan
72975;BME280;61166;54.228;37.632;2022-08-25T14:41:31;99921.22;;;27.83;nan
72975;BME280;61166;54.228;37.632;2022-08-25T14:43:58;99921.66;;;27.77;nan
72975;BME280;61166;54.228;37.632;2022-08-25T14:46:26;99914.22;;;27.82;nan
72975;BME280;61166;54.228;37.632;2022-08-25T14:49:04;99914.16;;;27.74;nan
72975;BME280;61166;54.228;37.632;2022-08-25T14:51:31;99918.34;;;27.57;nan
72975;BME280;61166;54.228;37.632;2022-08-25T14:54:04;99921.06;;;27.44;nan
72975;BME280;61166;54.228;37.632;2022-08-25T14:56:30;99919.22;;;27.30;nan
72975;BME280;61166;54.228;37.632;2022-08-25T14:58:56;99916.13;;;27.23;nan
72975;BME280;61166;54.228;37.632;2022-08-25T15:01:23;99912.19;;;27.07;nan
72975;BME280;61166;54.228;37.632;2022-08-25T15:03:51;99916.09;;;27.01;nan
72975;BME280;61166;54.228;37.632;2022-08-25T15:06:18;99912.47;;;26.92;nan
72975;BME280;61166;54.228;37.632;2022-08-25T15:08:43;99903.78;;;26.81;nan
72975;BME280;61166;54.228;37.632;2022-08-25T15:11:28;99901.78;;;26.73;nan
72975;BME280;61166;54.228;37.632;2022-08-25T15:13:54;99899.88;;;26.74;nan
72975;BME280;61166;54.228;37.632;2022-08-25T15:16:24;99901.16;;;26.62;nan
72975;BME280;61166;54.228;37.632;2022-08-25T15:18:51;99899.78;;;26.51;nan
72975;BME280;61166;54.228;37.632;2022-08-25T15:21:16;99901.28;;;26.44;nan
72975;BME280;61166;54.228;37.632;2022-08-25T15:23:42;99891.47;;;26.34;nan
72975;BME280;61166;54.228;37.632;2022-08-25T15:26:08;99888.66;;;26.25;nan
72975;BME280;61166;54.228;37.632;2022-08-25T15:28:38;99894.50;;;26.14;nan